Aviation Digital Data Service (ADDS)

Output produced by METARs form (1555 UTC 27 November 2014)
found at http://aviationweather.gov/adds/metars/
 
KBPT 271453Z 02011KT 10SM CLR 11/03 A3048 RMK AO2 SLP322 T01110028 51021